Hlavní strana
METAR-TAF:

METAR-TAF

Letiště :

Estevan, Saskatchewan, Kanada

zeměpisná šířka: 49-13N, zeměpisná délka: 102-58W, výška: 572 m

Aktuální stav počasí

Zpráva byla vytvořena před 36 minutami, v 16:00 UTC
Jižní vítr 14 kt s nárazy do 21 kt
Teplota 20°C
Vlhkost vzduchu 32%
Tlak 1014 hPa
Viditelnost: 24.1 km
Skoro jasno ve výšce 11000 ft
Skoro jasno ve výšce 23000 ft

METAR: CYEN 211600Z 17014G21KT 15SM FEW110 FEW230 20/03 A2994 RMK AC1CI2 AC TR SLP144 DENSITY ALT 3000FT

Čas: 10:36 (16:36 UTC)

Předpověď počasí

Zpráva byla vytvořena před 4 hodinami a 58 minutami, v 11:38 UTC
Předpověď platná od 21 v 12 UTC do 21 v 24 UTC
Jihovýchodní vítr 10 kt
Viditelnost: 10 km
Skoro jasno ve výšce 10000 ft
Změna
od 21 v 14 UTC do 21 v 16 UTC
Jihojihozápadní vítr 12 kt

TAF: CYEN 211138Z 2112/2124 14010KT P6SM FEW100 BECMG 2114/2116 20012KT RMK NXT FCST BY 211800Z

Stav a předpovědi počasí z více než 4 000 letišť (zprávy METAR a TAF).

Červené a žluté tečky na mapě představují dostupné meteorologické stanice.

Když kurzor umístíte na tečku, zobrazí se název stanice.

Pak kliknutím zobrazíte stav a předpověď počasí.

Chcete-li změnit mapu, kliknutím na zelené tlačítko se znaménkem +mapu přiblížíte, kliknutím na zelené tlačítko se znaménkem – mapu oddálíte a kliknutím na zelené šipky přejdete na sousední mapy.


METAR-TAF: